Time;durP1;ratioP1;P1;durP2;ratioP2;P2;SDS_P1;SDS_P2;PMS_P1;PMS_P2;Temp;Humidity;BMP_temperature;BMP_pressure;BME280_temperature;BME280_humidity;BME280_pressure;Samples;Min_cycle;Max_cycle;Signal;HPM_P1;HPM_P2
2024/01/20 00:01:20;;;;;;;10.63;3.13;;;;;;;;;;4935228;29;20039;-63
2024/01/20 00:03:46;;;;;;;7.40;3.00;;;;;;;;;;4934157;29;20019;-62
2024/01/20 00:06:11;;;;;;;11.65;3.22;;;;;;;;;;4934334;29;20260;-63
2024/01/20 00:08:37;;;;;;;7.45;3.50;;;;;;;;;;4934831;29;20163;-63
2024/01/20 00:11:02;;;;;;;6.63;3.55;;;;;;;;;;4917731;29;20028;-62
2024/01/20 00:13:28;;;;;;;12.88;3.25;;;;;;;;;;4935779;29;20031;-62
2024/01/20 00:15:53;;;;;;;5.70;2.70;;;;;;;;;;4935162;29;20032;-62
2024/01/20 00:18:19;;;;;;;8.25;3.13;;;;;;;;;;4935754;29;20561;-62
2024/01/20 00:20:45;;;;;;;8.27;2.80;;;;;;;;;;4935786;29;20027;-62
2024/01/20 00:23:12;;;;;;;11.93;2.83;;;;;;;;;;4935816;29;20030;-62
2024/01/20 00:25:37;;;;;;;13.23;3.22;;;;;;;;;;4936309;29;20139;-62
2024/01/20 00:28:03;;;;;;;8.73;2.88;;;;;;;;;;4936048;29;20110;-63
2024/01/20 00:30:29;;;;;;;16.50;3.45;;;;;;;;;;4935453;29;20054;-64
2024/01/20 00:32:55;;;;;;;10.80;3.00;;;;;;;;;;4936189;29;20465;-63
2024/01/20 00:35:20;;;;;;;9.55;2.55;;;;;;;;;;4935874;29;20075;-63
2024/01/20 00:37:46;;;;;;;9.55;2.78;;;;;;;;;;4936035;29;20481;-63
2024/01/20 00:40:12;;;;;;;6.13;2.70;;;;;;;;;;4936037;29;20024;-62
2024/01/20 00:42:37;;;;;;;8.80;2.80;;;;;;;;;;4935792;29;20032;-62
2024/01/20 00:45:04;;;;;;;6.55;2.90;;;;;;;;;;4935627;29;20317;-63
2024/01/20 00:47:30;;;;;;;9.50;3.08;;;;;;;;;;4935613;29;20023;-64
2024/01/20 00:49:56;;;;;;;8.48;2.70;;;;;;;;;;4935987;29;20034;-62
2024/01/20 00:52:21;;;;;;;7.35;2.83;;;;;;;;;;4935559;29;20027;-62
2024/01/20 00:54:47;;;;;;;5.88;2.60;;;;;;;;;;4935604;29;20103;-63
2024/01/20 00:57:12;;;;;;;9.35;2.97;;;;;;;;;;4935568;29;20028;-62
2024/01/20 00:59:38;;;;;;;8.95;2.83;;;;;;;;;;4935497;29;20122;-62
2024/01/20 01:02:04;;;;;;;4.68;2.42;;;;;;;;;;4935532;29;20032;-62
2024/01/20 01:04:29;;;;;;;7.32;3.00;;;;;;;;;;4935713;29;20119;-62
2024/01/20 01:06:55;;;;;;;8.63;2.70;;;;;;;;;;4935409;29;20023;-62
2024/01/20 01:09:21;;;;;;;5.68;2.60;;;;;;;;;;4935414;29;20039;-62
2024/01/20 01:11:46;;;;;;;10.13;2.95;;;;;;;;;;4935454;29;20040;-61
2024/01/20 01:14:12;;;;;;;5.82;2.67;;;;;;;;;;4935368;29;20485;-62
2024/01/20 01:16:38;;;;;;;6.18;2.70;;;;;;;;;;4935427;29;20059;-62
2024/01/20 01:19:04;;;;;;;4.38;2.67;;;;;;;;;;4935432;29;20063;-62
2024/01/20 01:21:29;;;;;;;5.65;2.47;;;;;;;;;;4935583;29;20051;-62
2024/01/20 01:23:55;;;;;;;8.75;2.65;;;;;;;;;;4935320;29;20039;-62
2024/01/20 01:26:22;;;;;;;4.13;2.30;;;;;;;;;;4935433;29;20036;-62
2024/01/20 01:28:48;;;;;;;6.13;2.60;;;;;;;;;;4935289;29;20031;-63
2024/01/20 01:31:13;;;;;;;6.03;3.00;;;;;;;;;;4935170;29;20405;-62
2024/01/20 01:33:39;;;;;;;4.65;2.63;;;;;;;;;;4935409;29;20051;-61
2024/01/20 01:36:05;;;;;;;4.63;2.65;;;;;;;;;;4935228;29;20086;-61
2024/01/20 01:38:30;;;;;;;7.85;2.92;;;;;;;;;;4935044;29;20059;-61
2024/01/20 01:40:56;;;;;;;5.88;2.92;;;;;;;;;;4935720;29;20063;-61
2024/01/20 01:43:21;;;;;;;4.50;2.63;;;;;;;;;;4938886;29;20024;-61
2024/01/20 01:45:47;;;;;;;3.95;2.40;;;;;;;;;;4938985;29;20024;-62
2024/01/20 01:48:12;;;;;;;5.00;2.78;;;;;;;;;;4939017;29;20036;-61
2024/01/20 01:50:38;;;;;;;6.28;2.35;;;;;;;;;;4938942;29;20027;-61
2024/01/20 01:53:05;;;;;;;4.88;2.97;;;;;;;;;;4938882;29;20385;-61
2024/01/20 01:55:33;;;;;;;3.65;2.50;;;;;;;;;;4938838;29;20032;-61
2024/01/20 01:58:01;;;;;;;4.03;2.30;;;;;;;;;;4938579;29;20046;-61
2024/01/20 02:00:28;;;;;;;6.50;2.60;;;;;;;;;;4939086;29;20028;-61
2024/01/20 02:02:53;;;;;;;5.75;2.60;;;;;;;;;;4938951;29;20082;-62
2024/01/20 02:05:19;;;;;;;4.82;2.40;;;;;;;;;;4938596;29;20508;-62
2024/01/20 02:07:47;;;;;;;4.95;2.47;;;;;;;;;;4939176;29;20042;-62
2024/01/20 02:10:16;;;;;;;6.65;2.72;;;;;;;;;;4938823;29;20020;-61
2024/01/20 02:12:43;;;;;;;6.85;2.75;;;;;;;;;;4938453;29;20027;-62
2024/01/20 02:15:09;;;;;;;5.05;2.63;;;;;;;;;;4938473;29;20024;-62
2024/01/20 02:17:35;;;;;;;10.35;2.70;;;;;;;;;;4938626;29;20024;-62
2024/01/20 02:20:00;;;;;;;3.38;2.40;;;;;;;;;;4938441;29;20366;-62
2024/01/20 02:22:26;;;;;;;5.10;2.13;;;;;;;;;;4938637;29;20024;-62
2024/01/20 02:24:51;;;;;;;4.57;2.60;;;;;;;;;;4938252;29;20070;-62
2024/01/20 02:27:18;;;;;;;4.97;2.25;;;;;;;;;;4938290;29;20140;-62
2024/01/20 02:29:44;;;;;;;4.45;2.30;;;;;;;;;;4938173;29;20031;-62
2024/01/20 02:32:09;;;;;;;3.78;2.72;;;;;;;;;;4938141;29;20080;-62
2024/01/20 02:34:37;;;;;;;6.40;2.08;;;;;;;;;;4938204;29;20042;-62
2024/01/20 02:37:04;;;;;;;3.45;2.50;;;;;;;;;;4937993;29;20529;-62
2024/01/20 02:39:30;;;;;;;6.03;2.55;;;;;;;;;;4937917;29;20079;-63
2024/01/20 02:41:56;;;;;;;4.32;2.90;;;;;;;;;;4938018;29;20055;-63
2024/01/20 02:44:21;;;;;;;5.50;2.30;;;;;;;;;;4937871;29;20086;-63
2024/01/20 02:46:47;;;;;;;4.60;2.58;;;;;;;;;;4937927;29;20473;-63
2024/01/20 02:49:13;;;;;;;3.60;2.22;;;;;;;;;;4938105;29;20019;-63
2024/01/20 02:51:38;;;;;;;3.67;2.47;;;;;;;;;;4938092;29;20054;-63
2024/01/20 02:54:04;;;;;;;3.95;2.10;;;;;;;;;;4936652;29;20119;-63
2024/01/20 02:56:29;;;;;;;5.00;2.58;;;;;;;;;;4938040;29;20043;-63
2024/01/20 02:58:55;;;;;;;4.18;2.22;;;;;;;;;;4937882;29;20114;-63
2024/01/20 03:01:20;;;;;;;4.45;2.20;;;;;;;;;;4937920;29;20110;-63
2024/01/20 03:03:46;;;;;;;3.78;2.20;;;;;;;;;;4937571;29;20454;-63
2024/01/20 03:06:12;;;;;;;6.55;2.60;;;;;;;;;;4937888;29;20393;-62
2024/01/20 03:08:37;;;;;;;2.63;2.30;;;;;;;;;;4937601;29;20051;-62
2024/01/20 03:11:03;;;;;;;6.68;2.63;;;;;;;;;;4937752;29;20464;-62
2024/01/20 03:13:29;;;;;;;2.60;1.98;;;;;;;;;;4937380;29;20051;-63
2024/01/20 03:15:54;;;;;;;3.85;3.13;;;;;;;;;;4937342;29;20027;-62
2024/01/20 03:18:20;;;;;;;5.40;2.80;;;;;;;;;;4920155;29;20040;-63
2024/01/20 03:20:45;;;;;;;5.80;2.35;;;;;;;;;;4937620;29;20389;-62
2024/01/20 03:23:11;;;;;;;2.83;2.20;;;;;;;;;;4937474;29;20035;-63
2024/01/20 03:25:36;;;;;;;4.00;2.35;;;;;;;;;;4937197;29;20034;-63
2024/01/20 03:28:02;;;;;;;3.72;2.15;;;;;;;;;;4937167;29;20031;-63
2024/01/20 03:30:28;;;;;;;2.60;2.30;;;;;;;;;;4937098;29;20020;-62
2024/01/20 03:32:53;;;;;;;5.07;2.40;;;;;;;;;;4937417;29;20028;-62
2024/01/20 03:35:19;;;;;;;4.30;2.20;;;;;;;;;;4937286;29;20027;-64
2024/01/20 03:37:44;;;;;;;5.07;2.38;;;;;;;;;;4936862;29;20385;-63
2024/01/20 03:40:10;;;;;;;3.65;2.03;;;;;;;;;;4936943;29;20028;-63
2024/01/20 03:42:36;;;;;;;2.95;2.30;;;;;;;;;;4937216;29;20071;-62
2024/01/20 03:45:01;;;;;;;3.65;2.38;;;;;;;;;;4936770;29;20548;-62
2024/01/20 03:47:27;;;;;;;3.13;2.38;;;;;;;;;;4937113;29;20034;-62
2024/01/20 03:49:52;;;;;;;3.90;1.98;;;;;;;;;;4936771;29;20102;-62
2024/01/20 03:52:18;;;;;;;4.38;2.20;;;;;;;;;;4936745;29;20038;-62
2024/01/20 07:01:42;;;;;;;2.72;1.77;;;;;;;;;;5811426;23;20741;-65
2024/01/20 07:04:08;;;;;;;2.08;1.85;;;;;;;;;;4928056;29;20044;-66
2024/01/20 07:06:33;;;;;;;2.67;1.92;;;;;;;;;;4927565;29;20469;-67
2024/01/20 07:08:59;;;;;;;2.33;2.05;;;;;;;;;;4928383;29;20098;-67
2024/01/20 07:11:25;;;;;;;2.78;1.95;;;;;;;;;;4918509;29;20055;-69
2024/01/20 07:13:51;;;;;;;2.55;2.10;;;;;;;;;;4918440;29;20035;-67
2024/01/20 07:16:19;;;;;;;2.75;2.03;;;;;;;;;;4924805;29;20032;-68
2024/01/20 07:18:44;;;;;;;2.45;1.88;;;;;;;;;;4934777;29;20067;-66
2024/01/20 07:21:10;;;;;;;2.10;1.85;;;;;;;;;;4937660;29;20085;-65
2024/01/20 07:23:35;;;;;;;2.63;1.73;;;;;;;;;;4935179;29;20028;-67
2024/01/20 07:26:01;;;;;;;2.92;2.20;;;;;;;;;;4934433;29;20555;-67
2024/01/20 07:28:27;;;;;;;2.63;2.10;;;;;;;;;;4935936;29;20019;-69
2024/01/20 07:30:53;;;;;;;2.25;2.00;;;;;;;;;;4936030;29;20031;-66
2024/01/20 07:33:19;;;;;;;2.10;1.80;;;;;;;;;;4930103;29;20028;-65
2024/01/20 07:35:44;;;;;;;1.98;1.63;;;;;;;;;;4927844;29;20020;-67
2024/01/20 07:38:11;;;;;;;2.50;1.80;;;;;;;;;;4911388;29;20374;-66
2024/01/20 07:40:36;;;;;;;2.00;1.80;;;;;;;;;;4917672;29;20389;-67
2024/01/20 07:43:03;;;;;;;2.10;1.83;;;;;;;;;;4918201;29;20038;-66
2024/01/20 07:45:30;;;;;;;2.25;1.90;;;;;;;;;;4917883;29;20032;-66
2024/01/20 07:47:56;;;;;;;2.42;1.98;;;;;;;;;;4917775;29;20032;-65
2024/01/20 07:50:21;;;;;;;2.60;2.00;;;;;;;;;;4917832;29;20025;-68
2024/01/20 07:52:47;;;;;;;2.28;1.70;;;;;;;;;;4917935;29;20060;-67
2024/01/20 07:55:12;;;;;;;2.88;2.40;;;;;;;;;;4917944;29;20024;-67
2024/01/20 07:57:39;;;;;;;2.30;2.10;;;;;;;;;;4917581;29;20473;-68
2024/01/20 08:00:07;;;;;;;2.20;2.00;;;;;;;;;;4917613;29;20024;-65
2024/01/20 08:02:32;;;;;;;2.17;1.90;;;;;;;;;;4917443;29;20382;-65
2024/01/20 08:04:59;;;;;;;2.38;2.08;;;;;;;;;;4912785;29;20044;-67
2024/01/20 08:07:25;;;;;;;2.60;2.20;;;;;;;;;;4935325;29;20396;-68
2024/01/20 08:09:50;;;;;;;3.72;2.17;;;;;;;;;;4935624;29;20030;-69
2024/01/20 08:12:16;;;;;;;3.20;1.90;;;;;;;;;;4935179;29;20079;-68
2024/01/20 08:14:41;;;;;;;4.25;2.60;;;;;;;;;;4934413;29;20090;-70
2024/01/20 08:17:07;;;;;;;5.63;2.30;;;;;;;;;;4933232;29;20019;-69
2024/01/20 08:19:32;;;;;;;4.10;2.38;;;;;;;;;;4928208;29;20059;-68
2024/01/20 08:21:58;;;;;;;5.28;2.38;;;;;;;;;;4930685;29;20023;-68
2024/01/20 08:24:23;;;;;;;3.85;2.42;;;;;;;;;;4936193;29;20099;-67
2024/01/20 08:26:49;;;;;;;11.80;2.38;;;;;;;;;;4936130;29;20106;-69
2024/01/20 08:29:14;;;;;;;8.20;2.38;;;;;;;;;;4931482;29;20038;-68
2024/01/20 08:31:40;;;;;;;4.28;2.70;;;;;;;;;;4922701;29;20087;-68
2024/01/20 08:34:06;;;;;;;4.30;2.67;;;;;;;;;;4927701;29;20023;-68
2024/01/20 08:36:31;;;;;;;2.30;1.98;;;;;;;;;;4925009;29;20056;-68
2024/01/20 08:38:57;;;;;;;5.72;2.22;;;;;;;;;;4928103;29;20032;-68
2024/01/20 08:41:22;;;;;;;2.75;2.08;;;;;;;;;;4924394;29;20040;-69
2024/01/20 08:43:48;;;;;;;4.90;2.40;;;;;;;;;;4933605;29;20023;-68
2024/01/20 08:46:13;;;;;;;3.78;2.55;;;;;;;;;;4935661;29;20110;-69
2024/01/20 08:48:39;;;;;;;9.13;2.50;;;;;;;;;;4935614;29;20044;-69
2024/01/20 08:51:05;;;;;;;5.72;2.42;;;;;;;;;;4925321;29;20059;-68
2024/01/20 08:53:33;;;;;;;3.95;2.33;;;;;;;;;;4899654;29;20059;-68
2024/01/20 08:55:59;;;;;;;4.32;2.53;;;;;;;;;;4916588;29;20028;-68
2024/01/20 08:58:25;;;;;;;2.95;2.38;;;;;;;;;;4921716;29;20064;-69
2024/01/20 09:00:51;;;;;;;2.35;2.05;;;;;;;;;;4925845;29;20024;-68
2024/01/20 09:03:16;;;;;;;3.85;2.63;;;;;;;;;;4925665;29;20074;-68
2024/01/20 09:05:42;;;;;;;5.00;2.40;;;;;;;;;;4924490;29;20483;-67
2024/01/20 09:08:10;;;;;;;3.10;2.25;;;;;;;;;;4926292;29;20032;-68
2024/01/20 09:10:36;;;;;;;3.88;2.22;;;;;;;;;;4924761;29;20428;-69
2024/01/20 09:13:03;;;;;;;5.40;2.47;;;;;;;;;;4908924;29;20031;-68
2024/01/20 09:15:29;;;;;;;2.30;2.05;;;;;;;;;;4924856;29;20107;-68
2024/01/20 09:17:58;;;;;;;6.15;2.40;;;;;;;;;;4935399;29;20111;-68
2024/01/20 09:20:23;;;;;;;5.88;2.20;;;;;;;;;;4935261;29;20031;-67
2024/01/20 09:22:49;;;;;;;3.35;2.15;;;;;;;;;;4935234;29;20078;-67
2024/01/20 09:25:16;;;;;;;6.20;2.33;;;;;;;;;;4935218;29;20496;-68
2024/01/20 09:27:41;;;;;;;3.78;2.33;;;;;;;;;;4918309;29;20035;-67
2024/01/20 09:30:07;;;;;;;3.00;2.25;;;;;;;;;;4929323;29;20032;-68
2024/01/20 09:32:33;;;;;;;8.23;2.80;;;;;;;;;;4924100;29;20055;-68
2024/01/20 09:35:00;;;;;;;4.90;2.30;;;;;;;;;;4917388;29;20107;-67
2024/01/20 09:37:26;;;;;;;8.75;2.70;;;;;;;;;;4916459;29;20201;-72
2024/01/20 09:39:51;;;;;;;14.75;9.93;;;;;;;;;;4916093;29;20588;-71
2024/01/20 09:42:17;;;;;;;8.55;7.05;;;;;;;;;;4916176;29;20031;-72
2024/01/20 09:44:43;;;;;;;14.45;9.60;;;;;;;;;;4916308;29;20119;-69
2024/01/20 09:47:11;;;;;;;15.43;8.73;;;;;;;;;;4915596;29;20028;-70
2024/01/20 09:49:37;;;;;;;10.60;8.77;;;;;;;;;;4898514;29;20169;-69
2024/01/20 09:52:09;;;;;;;8.23;6.57;;;;;;;;;;4915338;29;20032;-70
2024/01/20 09:54:43;;;;;;;8.93;5.90;;;;;;;;;;4915864;29;20024;-70
2024/01/20 09:57:11;;;;;;;7.95;5.97;;;;;;;;;;4915773;29;20031;-70
2024/01/20 09:59:41;;;;;;;6.93;4.63;;;;;;;;;;4916239;29;20366;-70
2024/01/20 10:02:10;;;;;;;7.88;5.50;;;;;;;;;;4916454;29;20516;-70
2024/01/20 10:04:42;;;;;;;8.52;5.70;;;;;;;;;;4919701;29;20058;-69
2024/01/20 10:07:07;;;;;;;6.05;5.15;;;;;;;;;;4919703;29;20028;-70
2024/01/20 10:09:33;;;;;;;8.02;5.43;;;;;;;;;;4919882;29;20119;-69
2024/01/20 10:11:59;;;;;;;10.02;5.75;;;;;;;;;;4919599;29;20362;-70
2024/01/20 10:14:25;;;;;;;7.80;5.10;;;;;;;;;;4902610;29;20111;-69
2024/01/20 10:16:50;;;;;;;5.75;5.18;;;;;;;;;;4919438;29;20103;-70
2024/01/20 10:19:16;;;;;;;10.02;5.18;;;;;;;;;;4919425;29;20162;-69
2024/01/20 10:21:42;;;;;;;7.15;4.82;;;;;;;;;;4919365;29;20032;-70
2024/01/20 10:24:08;;;;;;;7.55;4.80;;;;;;;;;;4919395;29;20036;-70
2024/01/20 10:26:43;;;;;;;5.03;4.53;;;;;;;;;;4902370;29;20039;-69
2024/01/20 10:29:09;;;;;;;7.82;4.90;;;;;;;;;;4932792;29;20024;-70
2024/01/20 10:31:35;;;;;;;8.85;4.85;;;;;;;;;;4935455;29;20118;-70
2024/01/20 10:34:01;;;;;;;6.97;4.80;;;;;;;;;;4927123;29;20042;-69
2024/01/20 10:36:27;;;;;;;7.30;4.75;;;;;;;;;;4924552;29;20064;-69
2024/01/20 10:38:53;;;;;;;6.43;4.80;;;;;;;;;;4921051;29;20508;-70
2024/01/20 10:41:23;;;;;;;8.13;4.53;;;;;;;;;;4938120;29;20098;-69
2024/01/20 10:43:58;;;;;;;5.82;4.63;;;;;;;;;;4938017;29;20539;-69
2024/01/20 10:46:31;;;;;;;8.27;4.43;;;;;;;;;;4937166;29;20043;-68
2024/01/20 10:49:00;;;;;;;4.38;3.53;;;;;;;;;;4932177;29;20028;-67
2024/01/20 10:51:30;;;;;;;5.93;4.23;;;;;;;;;;4929366;29;20030;-63
2024/01/20 10:53:56;;;;;;;6.30;4.30;;;;;;;;;;4931643;29;20024;-67
2024/01/20 10:56:24;;;;;;;6.05;3.63;;;;;;;;;;4930405;29;20500;-69
2024/01/20 10:59:09;;;;;;;6.68;3.95;;;;;;;;;;4937724;29;20031;-67
2024/01/20 11:01:37;;;;;;;10.18;4.43;;;;;;;;;;4937541;29;20377;-68
2024/01/20 11:04:03;;;;;;;10.45;4.20;;;;;;;;;;4920633;29;20384;-68
2024/01/20 11:06:29;;;;;;;11.95;4.65;;;;;;;;;;4937583;29;20036;-68
2024/01/20 11:08:55;;;;;;;8.23;4.15;;;;;;;;;;4936664;29;20067;-69
2024/01/20 11:11:27;;;;;;;7.03;3.92;;;;;;;;;;4937546;29;20024;-63
2024/01/20 11:13:57;;;;;;;5.95;3.67;;;;;;;;;;4936431;29;20031;-67
2024/01/20 11:16:23;;;;;;;5.07;3.97;;;;;;;;;;4937538;29;20500;-68
2024/01/20 11:18:49;;;;;;;7.50;3.80;;;;;;;;;;4914458;29;20067;-68
2024/01/20 11:21:15;;;;;;;4.90;3.42;;;;;;;;;;4934239;29;20028;-67
2024/01/20 11:23:46;;;;;;;5.25;3.92;;;;;;;;;;4930480;29;20039;-67
2024/01/20 11:26:12;;;;;;;;;;;;;;;;;;4918775;29;20028;-67
2024/01/20 11:28:43;;;;;;;5.32;3.72;;;;;;;;;;4934990;29;20043;-69
2024/01/20 11:31:19;;;;;;;4.15;3.22;;;;;;;;;;4928271;29;20040;-67
2024/01/20 11:33:45;;;;;;;4.07;3.60;;;;;;;;;;4928676;29;20064;-68
2024/01/20 11:36:11;;;;;;;6.10;3.55;;;;;;;;;;4936994;29;20063;-67
2024/01/20 11:38:37;;;;;;;7.70;3.85;;;;;;;;;;4936501;29;20043;-70
2024/01/20 11:41:03;;;;;;;5.47;3.67;;;;;;;;;;4925859;29;20028;-67
2024/01/20 11:43:29;;;;;;;4.38;3.63;;;;;;;;;;4922505;29;20046;-62
2024/01/20 11:45:58;;;;;;;5.15;3.55;;;;;;;;;;4929867;29;20027;-63
2024/01/20 11:48:24;;;;;;;3.78;3.33;;;;;;;;;;4928512;29;20032;-63
2024/01/20 11:50:50;;;;;;;8.43;4.07;;;;;;;;;;4923251;29;20421;-63
2024/01/20 11:53:16;;;;;;;7.85;3.70;;;;;;;;;;4917800;29;20030;-62
2024/01/20 11:55:53;;;;;;;4.38;3.53;;;;;;;;;;4917842;29;20457;-63
2024/01/20 11:58:18;;;;;;;8.05;3.70;;;;;;;;;;4926459;29;20515;-63
2024/01/20 12:00:44;;;;;;;6.30;3.45;;;;;;;;;;4936663;29;20067;-63
2024/01/20 12:03:09;;;;;;;4.95;3.42;;;;;;;;;;4936359;29;20048;-63
2024/01/20 12:05:35;;;;;;;7.75;3.55;;;;;;;;;;4936492;29;20165;-63
2024/01/20 12:08:01;;;;;;;3.78;3.38;;;;;;;;;;4936416;29;20079;-63
2024/01/20 12:10:26;;;;;;;5.80;3.60;;;;;;;;;;4935056;29;20511;-63
2024/01/20 12:12:52;;;;;;;8.57;3.53;;;;;;;;;;4935720;29;20059;-63
2024/01/20 12:15:18;;;;;;;4.15;3.22;;;;;;;;;;4936369;29;20024;-63
2024/01/20 12:17:44;;;;;;;6.38;3.70;;;;;;;;;;4931256;29;20028;-64
2024/01/20 12:20:10;;;;;;;6.90;4.15;;;;;;;;;;4935271;29;20032;-63
2024/01/20 12:22:35;;;;;;;8.82;3.55;;;;;;;;;;4936279;29;20079;-63
2024/01/20 12:25:01;;;;;;;6.15;2.95;;;;;;;;;;4935968;29;20074;-63
2024/01/20 12:27:27;;;;;;;7.90;3.50;;;;;;;;;;4936245;29;20030;-63
2024/01/20 12:29:53;;;;;;;11.20;3.67;;;;;;;;;;4918843;29;20608;-64
2024/01/20 12:32:19;;;;;;;10.85;3.47;;;;;;;;;;4936265;29;20031;-63
2024/01/20 12:34:44;;;;;;;5.57;3.40;;;;;;;;;;4936191;29;20034;-63
2024/01/20 12:37:10;;;;;;;16.77;4.15;;;;;;;;;;4917527;29;20439;-63
2024/01/20 12:39:35;;;;;;;12.40;4.22;;;;;;;;;;4935618;29;20388;-63
2024/01/20 12:42:02;;;;;;;10.85;3.70;;;;;;;;;;4935844;29;20087;-64
2024/01/20 12:44:27;;;;;;;12.98;3.60;;;;;;;;;;4935791;29;20111;-63
2024/01/20 12:46:53;;;;;;;8.65;3.17;;;;;;;;;;4935774;29;20107;-62
2024/01/20 12:49:20;;;;;;;7.22;3.63;;;;;;;;;;4935760;29;20031;-62
2024/01/20 12:51:46;;;;;;;10.18;3.40;;;;;;;;;;4935950;29;20099;-63
2024/01/20 12:54:13;;;;;;;8.18;3.13;;;;;;;;;;4935610;29;20032;-64
2024/01/20 12:56:38;;;;;;;6.47;3.42;;;;;;;;;;4935657;29;20031;-64
2024/01/20 12:59:04;;;;;;;10.80;3.13;;;;;;;;;;4935729;29;20181;-63
2024/01/20 13:01:30;;;;;;;7.00;3.13;;;;;;;;;;4935262;29;20028;-64
2024/01/20 13:03:56;;;;;;;7.75;3.45;;;;;;;;;;4933862;29;20031;-64
2024/01/20 13:06:21;;;;;;;4.32;3.10;;;;;;;;;;4935679;29;20024;-63
2024/01/20 13:08:48;;;;;;;5.03;3.05;;;;;;;;;;4918815;29;20531;-64
2024/01/20 13:11:13;;;;;;;5.93;3.28;;;;;;;;;;4935193;29;20046;-64
2024/01/20 13:13:40;;;;;;;8.35;3.50;;;;;;;;;;4933617;29;20472;-64
2024/01/20 13:16:06;;;;;;;6.07;3.13;;;;;;;;;;4933867;29;20050;-64
2024/01/20 13:18:33;;;;;;;9.25;3.67;;;;;;;;;;4934416;29;20078;-64
2024/01/20 13:20:59;;;;;;;6.65;3.10;;;;;;;;;;4932841;29;20044;-64
2024/01/20 13:23:26;;;;;;;5.30;3.60;;;;;;;;;;4932747;29;20055;-64
2024/01/20 13:25:54;;;;;;;6.38;3.45;;;;;;;;;;4931942;29;20076;-64
2024/01/20 13:28:20;;;;;;;6.47;3.10;;;;;;;;;;4933962;29;20023;-64
2024/01/20 13:30:45;;;;;;;7.22;3.30;;;;;;;;;;4932224;29;20078;-64
2024/01/20 13:33:11;;;;;;;7.03;3.08;;;;;;;;;;4933540;29;20032;-64
2024/01/20 13:35:37;;;;;;;4.57;3.35;;;;;;;;;;4935239;29;20028;-63
2024/01/20 13:38:03;;;;;;;9.30;3.25;;;;;;;;;;4939724;29;20604;-64
2024/01/20 13:40:28;;;;;;;4.85;3.38;;;;;;;;;;4941611;29;20115;-63
2024/01/20 13:42:54;;;;;;;4.45;3.22;;;;;;;;;;4941523;29;20111;-63
2024/01/20 13:45:19;;;;;;;6.20;3.28;;;;;;;;;;4941447;29;20027;-63
2024/01/20 13:47:45;;;;;;;5.95;3.33;;;;;;;;;;4941393;29;20083;-64
2024/01/20 13:50:10;;;;;;;10.48;3.30;;;;;;;;;;4924456;29;20026;-64
2024/01/20 13:52:36;;;;;;;7.47;3.03;;;;;;;;;;4941378;29;20436;-63
2024/01/20 13:55:04;;;;;;;7.55;3.17;;;;;;;;;;4941706;29;20036;-63
2024/01/20 13:57:30;;;;;;;11.02;3.13;;;;;;;;;;4940835;29;20031;-63
2024/01/20 13:59:56;;;;;;;9.23;3.75;;;;;;;;;;4953696;29;20074;-64
2024/01/20 14:02:21;;;;;;;3.30;3.00;;;;;;;;;;4960226;28;20445;-64
2024/01/20 14:04:47;;;;;;;9.32;3.40;;;;;;;;;;4960361;29;20047;-64
2024/01/20 14:07:12;;;;;;;12.88;4.18;;;;;;;;;;4960515;28;20067;-68
2024/01/20 14:09:38;;;;;;;6.57;3.10;;;;;;;;;;4960241;28;20038;-67
2024/01/20 14:12:04;;;;;;;5.13;3.00;;;;;;;;;;4959989;28;20035;-67
2024/01/20 14:14:29;;;;;;;9.18;4.32;;;;;;;;;;4960180;28;20031;-67
2024/01/20 14:16:56;;;;;;;7.00;3.35;;;;;;;;;;4959949;29;20472;-66
2024/01/20 14:19:22;;;;;;;8.15;3.20;;;;;;;;;;4958661;29;20472;-67
2024/01/20 14:21:47;;;;;;;6.20;3.20;;;;;;;;;;4958276;28;20026;-67
2024/01/20 14:24:13;;;;;;;7.32;3.03;;;;;;;;;;4941729;29;20125;-67
2024/01/20 14:26:39;;;;;;;6.30;3.03;;;;;;;;;;4960162;29;20027;-67
2024/01/20 14:29:08;;;;;;;6.60;3.38;;;;;;;;;;4960074;29;20364;-67
2024/01/20 14:31:44;;;;;;;3.85;2.97;;;;;;;;;;4960191;28;20427;-66
2024/01/20 14:34:10;;;;;;;6.25;2.83;;;;;;;;;;4960359;28;20089;-67
2024/01/20 14:36:35;;;;;;;5.70;2.80;;;;;;;;;;4960176;29;20483;-67
2024/01/20 14:39:01;;;;;;;4.22;2.72;;;;;;;;;;4960028;28;20030;-67
2024/01/20 14:41:26;;;;;;;5.68;2.90;;;;;;;;;;4959993;29;20027;-66
2024/01/20 14:43:54;;;;;;;8.07;3.15;;;;;;;;;;4960004;29;20498;-67
2024/01/20 14:46:19;;;;;;;5.07;2.92;;;;;;;;;;4960266;29;20027;-67
2024/01/20 14:48:45;;;;;;;3.45;2.85;;;;;;;;;;4958556;28;20464;-67
2024/01/20 14:51:10;;;;;;;5.47;2.95;;;;;;;;;;4957017;29;20034;-67
2024/01/20 14:53:36;;;;;;;5.95;3.65;;;;;;;;;;4956966;29;20027;-67
2024/01/20 14:56:01;;;;;;;4.70;2.67;;;;;;;;;;4957002;29;20050;-66
2024/01/20 14:58:28;;;;;;;3.22;2.92;;;;;;;;;;4956050;29;20027;-67
2024/01/20 15:00:53;;;;;;;4.97;2.80;;;;;;;;;;4956805;29;20386;-67
2024/01/20 15:03:19;;;;;;;3.63;2.90;;;;;;;;;;4956539;29;20143;-67
2024/01/20 15:05:44;;;;;;;4.63;3.00;;;;;;;;;;4956715;29;20031;-67
2024/01/20 15:08:10;;;;;;;5.63;2.80;;;;;;;;;;4956657;29;20067;-67
2024/01/20 15:10:35;;;;;;;4.00;2.90;;;;;;;;;;4951872;29;20188;-67
2024/01/20 15:13:02;;;;;;;5.88;2.80;;;;;;;;;;4936253;29;20043;-66
2024/01/20 15:15:28;;;;;;;5.03;2.92;;;;;;;;;;4936299;29;20098;-66
2024/01/20 15:17:53;;;;;;;3.70;2.80;;;;;;;;;;4935901;29;20115;-67
2024/01/20 15:20:19;;;;;;;5.32;2.80;;;;;;;;;;4935504;29;20031;-67
2024/01/20 15:22:46;;;;;;;4.40;2.88;;;;;;;;;;4935645;29;20027;-67
2024/01/20 15:25:15;;;;;;;3.65;2.83;;;;;;;;;;4935924;29;20031;-68
2024/01/20 15:27:41;;;;;;;5.60;3.00;;;;;;;;;;4935793;29;20444;-68
2024/01/20 15:30:09;;;;;;;5.32;3.00;;;;;;;;;;4935925;29;20024;-68
2024/01/20 15:32:35;;;;;;;4.82;3.10;;;;;;;;;;4934040;29;20618;-68
2024/01/20 15:35:00;;;;;;;3.75;3.17;;;;;;;;;;4935808;29;20047;-67
2024/01/20 15:37:26;;;;;;;4.40;3.03;;;;;;;;;;4936153;29;20095;-67
2024/01/20 15:39:52;;;;;;;4.78;2.92;;;;;;;;;;4935457;29;20028;-68
2024/01/20 15:42:18;;;;;;;4.35;3.13;;;;;;;;;;4934480;29;20035;-67
2024/01/20 15:44:43;;;;;;;3.03;2.80;;;;;;;;;;4933448;29;20427;-68
2024/01/20 15:47:09;;;;;;;5.68;3.65;;;;;;;;;;4936034;29;20484;-68
2024/01/20 15:49:35;;;;;;;4.20;3.15;;;;;;;;;;4936719;29;20051;-67
2024/01/20 15:52:00;;;;;;;5.15;3.15;;;;;;;;;;4936501;29;20023;-66
2024/01/20 15:54:26;;;;;;;6.70;3.45;;;;;;;;;;4936613;29;20019;-67
2024/01/20 15:56:51;;;;;;;3.92;3.20;;;;;;;;;;4936866;29;20119;-67
2024/01/20 15:59:23;;;;;;;5.53;3.20;;;;;;;;;;4936376;29;20028;-66
2024/01/20 16:01:48;;;;;;;4.75;3.33;;;;;;;;;;4935957;29;20044;-66
2024/01/20 16:04:15;;;;;;;5.47;2.90;;;;;;;;;;4934056;29;20028;-66
2024/01/20 16:06:42;;;;;;;3.95;3.10;;;;;;;;;;4927203;29;20039;-65
2024/01/20 16:09:08;;;;;;;5.30;3.20;;;;;;;;;;4925067;29;20067;-66
2024/01/20 16:11:34;;;;;;;4.63;2.97;;;;;;;;;;4928038;29;20551;-66
2024/01/20 16:13:59;;;;;;;4.90;3.92;;;;;;;;;;4934179;29;20067;-67
2024/01/20 16:16:25;;;;;;;10.40;4.03;;;;;;;;;;4935127;29;20024;-68
2024/01/20 16:18:51;;;;;;;4.95;3.70;;;;;;;;;;4935161;29;20051;-66
2024/01/20 16:21:22;;;;;;;4.55;3.13;;;;;;;;;;4934121;29;20476;-66
2024/01/20 16:23:51;;;;;;;8.05;3.65;;;;;;;;;;4935967;29;20484;-67
2024/01/20 16:26:20;;;;;;;3.85;3.20;;;;;;;;;;4934638;29;20488;-67
2024/01/20 16:28:46;;;;;;;3.90;3.33;;;;;;;;;;4935914;29;20032;-67
2024/01/20 16:31:13;;;;;;;5.10;3.40;;;;;;;;;;4935923;29;20051;-66
2024/01/20 16:33:39;;;;;;;5.93;3.83;;;;;;;;;;4934686;29;20035;-67
2024/01/20 16:36:05;;;;;;;4.40;3.67;;;;;;;;;;4935056;29;20087;-68
2024/01/20 16:38:32;;;;;;;7.63;3.80;;;;;;;;;;4935789;29;20031;-67
2024/01/20 16:40:58;;;;;;;10.15;4.55;;;;;;;;;;4935805;29;20024;-67
2024/01/20 16:43:23;;;;;;;8.50;3.90;;;;;;;;;;4935966;29;20042;-67
2024/01/20 16:45:49;;;;;;;4.47;3.33;;;;;;;;;;4935765;29;20026;-66
2024/01/20 16:48:15;;;;;;;5.85;3.40;;;;;;;;;;4935790;29;20090;-67
2024/01/20 16:50:40;;;;;;;4.32;3.50;;;;;;;;;;4935534;29;20024;-68
2024/01/20 16:53:08;;;;;;;6.78;3.30;;;;;;;;;;4935470;29;20019;-67
2024/01/20 16:55:34;;;;;;;4.43;3.75;;;;;;;;;;4935739;29;20523;-68
2024/01/20 16:58:00;;;;;;;6.32;3.63;;;;;;;;;;4935197;29;20679;-67
2024/01/20 17:00:26;;;;;;;8.80;3.42;;;;;;;;;;4935728;29;20106;-66
2024/01/20 17:02:51;;;;;;;4.20;3.50;;;;;;;;;;4935326;29;20403;-67
2024/01/20 17:05:17;;;;;;;5.50;3.35;;;;;;;;;;4935326;29;20031;-67
2024/01/20 17:07:43;;;;;;;5.90;3.40;;;;;;;;;;4935306;29;20020;-67
2024/01/20 17:10:09;;;;;;;6.00;3.22;;;;;;;;;;4935367;29;20429;-66
2024/01/20 17:12:34;;;;;;;5.03;3.67;;;;;;;;;;4934777;29;20036;-66
2024/01/20 17:15:00;;;;;;;4.88;3.45;;;;;;;;;;4935293;29;20445;-68
2024/01/20 17:17:25;;;;;;;4.75;3.35;;;;;;;;;;4935536;29;20055;-66
2024/01/20 17:19:51;;;;;;;4.88;3.60;;;;;;;;;;4935135;29;20028;-66
2024/01/20 17:22:16;;;;;;;5.13;3.47;;;;;;;;;;4935488;29;20031;-66
2024/01/20 17:24:42;;;;;;;5.35;3.58;;;;;;;;;;4935241;29;20039;-64
2024/01/20 17:27:07;;;;;;;4.35;3.58;;;;;;;;;;4935248;29;20032;-66
2024/01/20 17:29:33;;;;;;;5.00;3.20;;;;;;;;;;4935249;29;20034;-67
2024/01/20 17:32:02;;;;;;;4.85;3.40;;;;;;;;;;4934937;29;20023;-66
2024/01/20 17:34:28;;;;;;;6.33;3.63;;;;;;;;;;4935398;29;20098;-65
2024/01/20 17:36:57;;;;;;;5.03;3.80;;;;;;;;;;4935036;29;20897;-66
2024/01/20 17:39:25;;;;;;;3.90;3.50;;;;;;;;;;4934981;29;20134;-67
2024/01/20 17:41:52;;;;;;;7.50;3.67;;;;;;;;;;4935006;29;20465;-68
2024/01/20 17:44:19;;;;;;;5.00;3.50;;;;;;;;;;4933620;29;20064;-67